Time;durP1;ratioP1;P1;durP2;ratioP2;P2;SDS_P1;SDS_P2;PMS_P1;PMS_P2;Temp;Humidity;BMP_temperature;BMP_pressure;BME280_temperature;BME280_humidity;BME280_pressure;Samples;Min_cycle;Max_cycle;Signal;HPM_P1;HPM_P2
2021/03/06 00:03:41;;;;;;;1.50;1.40;;;18.60;30.50;;;;;;8406177;28;20079;-53
2021/03/06 00:07:42;;;;;;;1.40;1.20;;;18.60;30.50;;;;;;8405688;28;20593;-55
2021/03/06 00:11:42;;;;;;;2.07;1.53;;;18.60;30.50;;;;;;8385432;28;20592;-54
2021/03/06 00:15:43;;;;;;;1.97;1.40;;;18.60;30.50;;;;;;8405306;28;20048;-54
2021/03/06 00:19:44;;;;;;;2.13;1.50;;;18.60;30.50;;;;;;8383289;28;20037;-55
2021/03/06 00:23:44;;;;;;;2.93;1.63;;;18.60;30.50;;;;;;8386245;28;20458;-55
2021/03/06 00:27:45;;;;;;;2.33;1.70;;;18.60;31.10;;;;;;8385202;28;20037;-55
2021/03/06 00:31:45;;;;;;;2.17;1.43;;;18.60;30.50;;;;;;8387740;28;20039;-54
2021/03/06 00:35:46;;;;;;;2.43;1.33;;;18.60;30.50;;;;;;8385480;28;20086;-56
2021/03/06 00:39:46;;;;;;;2.03;1.57;;;18.50;30.50;;;;;;8402843;28;20043;-54
2021/03/06 00:43:47;;;;;;;1.67;1.57;;;18.50;30.50;;;;;;8404904;28;20032;-55
2021/03/06 00:47:48;;;;;;;1.40;1.30;;;18.50;30.50;;;;;;8389392;28;20491;-54
2021/03/06 00:51:48;;;;;;;1.70;1.50;;;18.50;30.50;;;;;;8384730;28;20040;-55
2021/03/06 00:55:49;;;;;;;1.80;1.60;;;18.40;30.50;;;;;;8382890;28;20032;-55
2021/03/06 00:59:49;;;;;;;1.83;1.20;;;18.40;30.50;;;;;;8387881;28;20097;-53
2021/03/06 01:03:50;;;;;;;1.83;1.63;;;18.40;30.50;;;;;;8391099;28;20124;-54
2021/03/06 01:07:50;;;;;;;1.60;1.50;;;18.40;30.50;;;;;;8393626;28;20139;-55
2021/03/06 01:11:51;;;;;;;1.30;1.20;;;18.40;30.50;;;;;;8391069;28;20455;-55
2021/03/06 01:15:51;;;;;;;2.17;1.77;;;18.40;30.50;;;;;;8390724;28;20044;-54
2021/03/06 01:19:52;;;;;;;1.67;1.57;;;18.40;30.50;;;;;;8388745;28;20075;-54
2021/03/06 01:23:52;;;;;;;2.27;1.53;;;18.30;30.50;;;;;;8394939;28;20405;-54
2021/03/06 01:27:53;;;;;;;2.33;1.60;;;18.30;30.50;;;;;;8390190;28;20040;-54
2021/03/06 01:31:53;;;;;;;2.13;1.60;;;18.30;30.50;;;;;;8407143;28;20024;-55
2021/03/06 01:35:54;;;;;;;1.53;1.40;;;18.30;30.50;;;;;;8422694;28;20025;-55
2021/03/06 01:39:54;;;;;;;1.70;1.40;;;18.30;30.50;;;;;;8428099;28;20388;-54
2021/03/06 01:43:55;;;;;;;1.67;1.37;;;18.30;30.50;;;;;;8388422;28;20620;-55
2021/03/06 01:47:56;;;;;;;1.97;1.30;;;18.30;30.50;;;;;;8389981;28;20094;-54
2021/03/06 01:51:57;;;;;;;2.10;1.60;;;18.30;30.50;;;;;;8389608;28;20032;-55
2021/03/06 01:55:58;;;;;;;1.85;1.50;;;18.30;30.50;;;;;;8390129;28;20036;-54
2021/03/06 01:59:59;;;;;;;1.60;1.40;;;18.20;30.40;;;;;;8427428;28;20044;-54
2021/03/06 02:03:59;;;;;;;1.70;1.60;;;18.30;30.50;;;;;;8395656;28;20398;-54
2021/03/06 02:08:01;;;;;;;2.10;1.40;;;18.20;30.50;;;;;;8387281;28;20434;-55
2021/03/06 02:12:08;;;;;;;1.80;1.45;;;18.20;30.40;;;;;;8387920;28;20093;-54
2021/03/06 02:16:17;;;;;;;1.92;1.38;;;18.20;30.50;;;;;;8393775;28;20033;-54
2021/03/06 02:20:36;;;;;;;2.05;1.55;;;18.20;30.50;;;;;;8387023;28;20136;-54
2021/03/06 02:24:55;;;;;;;1.67;1.48;;;18.20;30.50;;;;;;8413134;28;20473;-55
2021/03/06 02:29:42;;;;;;;2.33;1.60;;;18.20;30.50;;;;;;8402157;28;20052;-54
2021/03/06 02:34:00;;;;;;;2.05;1.60;;;18.20;30.50;;;;;;8384985;28;20041;-54
2021/03/06 02:38:09;;;;;;;2.50;2.30;;;18.10;30.50;;;;;;8386374;28;20036;-54
2021/03/06 02:42:15;;;;;;;2.03;1.80;;;18.10;30.50;;;;;;8392435;28;20043;-54
2021/03/06 02:46:15;;;;;;;2.25;1.48;;;18.10;30.50;;;;;;8387812;28;20036;-54
2021/03/06 02:50:16;;;;;;;1.23;1.13;;;18.10;30.50;;;;;;8385982;28;20542;-53
2021/03/06 02:54:17;;;;;;;1.83;1.53;;;18.00;30.50;;;;;;8387993;28;20055;-54
2021/03/06 02:58:33;;;;;;;2.00;1.40;;;18.10;30.50;;;;;;8387694;28;20039;-54
2021/03/06 03:02:51;;;;;;;1.80;1.45;;;18.10;30.50;;;;;;8390341;28;20401;-53
2021/03/06 03:07:00;;;;;;;2.15;1.58;;;18.00;30.40;;;;;;8387278;28;20046;-54
2021/03/06 03:11:05;;;;;;;1.58;1.48;;;18.00;30.50;;;;;;8386076;28;20051;-54
2021/03/06 03:15:21;;;;;;;1.50;1.40;;;18.00;30.50;;;;;;8387727;28;20114;-53
2021/03/06 03:19:30;;;;;;;1.73;1.30;;;18.00;30.50;;;;;;8391056;28;20035;-54
2021/03/06 03:23:43;;;;;;;2.70;1.55;;;18.00;30.50;;;;;;8422774;28;20035;-54
2021/03/06 03:27:45;;;;;;;2.55;1.33;;;18.00;30.50;;;;;;8389012;28;20056;-54
2021/03/06 03:31:50;;;;;;;1.75;1.60;;;18.00;30.50;;;;;;8385088;28;20037;-54
2021/03/06 03:35:51;;;;;;;1.73;1.60;;;17.90;30.40;;;;;;8386267;28;20040;-54
2021/03/06 03:39:52;;;;;;;1.97;1.57;;;17.90;30.50;;;;;;8387712;28;20436;-54
2021/03/06 03:43:54;;;;;;;1.98;1.45;;;17.90;30.50;;;;;;8410082;28;20036;-54
2021/03/06 03:47:54;;;;;;;2.00;1.60;;;17.90;30.50;;;;;;8386172;28;20049;-54
2021/03/06 03:51:56;;;;;;;2.07;1.67;;;18.00;30.40;;;;;;8385894;28;20540;-54
2021/03/06 03:55:56;;;;;;;;;;;18.00;30.40;;;;;;8384395;28;20476;-53
2021/03/06 04:00:00;;;;;;;1.80;1.38;;;18.00;30.40;;;;;;8390324;28;19919;-53
2021/03/06 04:04:00;;;;;;;2.13;1.58;;;18.00;30.40;;;;;;8385769;28;20032;-53
2021/03/06 04:08:01;;;;;;;1.63;1.30;;;18.00;30.30;;;;;;8402962;28;20093;-53
2021/03/06 04:12:02;;;;;;;2.33;1.70;;;18.00;30.30;;;;;;8408571;28;20045;-54
2021/03/06 04:16:02;;;;;;;1.50;1.40;;;18.00;30.30;;;;;;8386364;28;20515;-54
2021/03/06 04:20:05;;;;;;;1.67;1.27;;;18.10;30.30;;;;;;8386758;28;20032;-54
2021/03/06 04:24:06;;;;;;;2.00;1.60;;;18.10;30.30;;;;;;8408546;28;20123;-54
2021/03/06 04:28:07;;;;;;;2.90;1.63;;;18.10;30.30;;;;;;8404036;28;20418;-53
2021/03/06 04:32:07;;;;;;;1.60;1.50;;;18.10;30.20;;;;;;8387235;28;20280;-54
2021/03/06 04:36:09;;;;;;;1.90;1.67;;;18.10;30.20;;;;;;8433205;28;20119;-54
2021/03/06 04:40:12;;;;;;;1.85;1.63;;;18.10;30.20;;;;;;8401133;28;20127;-54
2021/03/06 04:44:14;;;;;;;2.15;1.50;;;18.20;30.10;;;;;;8394064;28;20040;-54
2021/03/06 04:48:14;;;;;;;1.65;1.55;;;18.20;30.10;;;;;;8395574;28;20043;-54
2021/03/06 04:52:15;;;;;;;1.80;1.50;;;18.20;30.10;;;;;;8400262;28;20041;-54
2021/03/06 04:56:16;;;;;;;1.77;1.57;;;18.10;30.00;;;;;;8394119;28;20128;-54
2021/03/06 05:00:17;;;;;;;1.30;1.20;;;18.10;30.10;;;;;;8396174;28;20105;-53
2021/03/06 05:04:18;;;;;;;2.40;1.52;;;18.10;30.10;;;;;;8395435;28;20466;-53
2021/03/06 05:08:18;;;;;;;1.60;1.50;;;18.10;30.10;;;;;;8393808;28;20052;-53
2021/03/06 05:12:19;;;;;;;2.47;1.70;;;18.10;30.10;;;;;;8399817;28;20048;-55
2021/03/06 05:16:19;;;;;;;1.97;1.60;;;18.10;30.80;;;;;;8395318;28;20036;-54
2021/03/06 05:20:20;;;;;;;1.67;1.40;;;18.10;30.20;;;;;;8393734;28;20535;-53
2021/03/06 05:24:20;;;;;;;2.20;1.80;;;18.00;30.10;;;;;;8400490;28;20122;-54
2021/03/06 05:28:22;;;;;;;2.57;2.00;;;18.00;30.10;;;;;;8433334;27;20471;-54
2021/03/06 05:32:23;;;;;;;2.40;1.67;;;18.00;30.20;;;;;;8396665;28;20081;-54
2021/03/06 05:36:24;;;;;;;1.93;1.53;;;18.00;30.20;;;;;;8395053;28;20036;-54
2021/03/06 05:40:29;;;;;;;1.63;1.40;;;18.00;30.20;;;;;;8395233;28;20082;-54
2021/03/06 05:44:33;;;;;;;2.50;1.60;;;17.90;30.20;;;;;;8393399;28;20539;-52
2021/03/06 05:48:34;;;;;;;1.58;1.45;;;17.90;30.20;;;;;;8427020;28;20036;-54
2021/03/06 05:52:38;;;;;;;1.83;1.43;;;17.90;30.30;;;;;;8398295;28;20128;-54
2021/03/06 05:56:41;;;;;;;1.50;1.40;;;17.90;30.20;;;;;;8402630;28;20047;-54
2021/03/06 06:00:42;;;;;;;1.50;1.40;;;17.90;30.20;;;;;;8417185;28;20058;-54
2021/03/06 06:04:44;;;;;;;1.67;1.58;;;17.90;30.20;;;;;;8391975;28;20483;-54
2021/03/06 06:08:44;;;;;;;1.73;1.58;;;17.80;30.20;;;;;;8388887;28;20139;-54
2021/03/06 06:12:45;;;;;;;1.50;1.40;;;17.80;30.10;;;;;;8389710;28;20044;-54
2021/03/06 06:16:47;;;;;;;1.88;1.52;;;17.80;30.20;;;;;;8396021;28;20036;-53
2021/03/06 06:20:48;;;;;;;1.48;1.38;;;17.80;30.10;;;;;;8426854;28;20036;-54
2021/03/06 06:24:50;;;;;;;2.10;1.50;;;17.80;30.10;;;;;;8388762;28;20043;-54
2021/03/06 06:28:51;;;;;;;2.22;1.67;;;17.80;30.10;;;;;;8386839;28;20053;-54
2021/03/06 06:32:51;;;;;;;2.33;1.60;;;17.80;30.10;;;;;;8389002;28;20063;-54
2021/03/06 06:36:52;;;;;;;2.07;1.57;;;17.80;30.20;;;;;;8388204;28;20044;-54
2021/03/06 06:40:55;;;;;;;1.83;1.53;;;17.80;30.10;;;;;;8390959;28;20036;-54
2021/03/06 06:44:57;;;;;;;1.67;1.50;;;17.70;30.10;;;;;;8394039;28;20374;-55
2021/03/06 06:48:59;;;;;;;2.13;1.77;;;17.70;30.10;;;;;;8387699;28;20093;-54
2021/03/06 06:53:00;;;;;;;1.67;1.58;;;17.70;30.10;;;;;;8385802;28;20068;-54
2021/03/06 06:57:07;;;;;;;2.70;1.43;;;17.70;30.10;;;;;;8390220;28;20033;-53
2021/03/06 07:01:30;;;;;;;2.20;1.85;;;17.70;30.10;;;;;;8387380;28;20509;-53
2021/03/06 07:05:31;;;;;;;1.52;1.38;;;17.70;30.20;;;;;;8385450;28;20071;-54
2021/03/06 07:09:32;;;;;;;1.90;1.70;;;17.70;30.10;;;;;;8402144;28;20054;-55
2021/03/06 07:13:42;;;;;;;2.03;1.40;;;17.70;30.10;;;;;;8414695;28;20028;-54
2021/03/06 07:17:43;;;;;;;1.77;1.35;;;17.70;30.10;;;;;;8389877;28;20051;-54
2021/03/06 07:21:51;;;;;;;2.33;1.70;;;17.70;30.10;;;;;;8387387;28;20071;-54
2021/03/06 07:25:53;;;;;;;2.33;1.65;;;17.70;30.10;;;;;;8385101;28;20610;-54
2021/03/06 07:29:54;;;;;;;1.70;1.60;;;17.70;30.10;;;;;;8386523;28;20055;-54
2021/03/06 07:33:56;;;;;;;2.10;1.60;;;17.70;30.10;;;;;;8386624;28;20037;-54
2021/03/06 07:37:58;;;;;;;1.65;1.52;;;17.70;30.10;;;;;;8389227;28;20029;-55
2021/03/06 07:42:02;;;;;;;2.67;1.40;;;17.70;30.10;;;;;;8386335;28;20127;-54
2021/03/06 07:46:05;;;;;;;2.75;1.90;;;17.70;30.10;;;;;;8385965;28;20033;-54
2021/03/06 07:50:09;;;;;;;1.85;1.60;;;17.70;30.00;;;;;;8384784;28;20413;-54
2021/03/06 07:54:13;;;;;;;1.48;1.38;;;17.70;30.00;;;;;;8390644;28;20098;-54
2021/03/06 07:58:21;;;;;;;2.10;1.70;;;17.70;30.00;;;;;;8385646;28;20032;-55
2021/03/06 08:02:35;;;;;;;2.35;1.77;;;17.60;30.00;;;;;;8406365;28;20047;-54
2021/03/06 08:06:36;;;;;;;1.80;1.70;;;17.70;30.00;;;;;;8404304;28;20032;-54
2021/03/06 08:11:02;;;;;;;2.10;1.60;;;17.70;30.00;;;;;;8383271;28;20440;-53
2021/03/06 08:15:27;;;;;;;2.03;1.40;;;17.70;30.00;;;;;;8390047;28;20028;-54
2021/03/06 08:19:28;;;;;;;1.83;1.60;;;17.70;30.00;;;;;;8356824;28;20045;-54
2021/03/06 08:23:30;;;;;;;2.30;1.67;;;17.70;30.00;;;;;;8399869;28;20704;-54
2021/03/06 08:27:30;;;;;;;;;;;17.70;30.00;;;;;;8403674;28;20505;-53
2021/03/06 08:31:39;;;;;;;2.42;1.63;;;17.70;30.00;;;;;;8385103;28;19916;-53
2021/03/06 08:35:39;;;;;;;1.90;1.70;;;17.70;30.00;;;;;;8388411;28;20493;-53
2021/03/06 08:39:45;;;;;;;2.27;1.80;;;17.70;30.00;;;;;;8384750;28;20078;-54
2021/03/06 08:43:46;;;;;;;1.75;1.65;;;17.70;29.90;;;;;;8383419;28;20058;-53
2021/03/06 08:47:58;;;;;;;1.70;1.60;;;17.70;30.00;;;;;;8385800;28;20049;-54
2021/03/06 08:51:58;;;;;;;2.22;1.92;;;17.70;30.00;;;;;;8386570;28;20067;-53
2021/03/06 08:56:00;;;;;;;1.90;1.60;;;17.70;30.00;;;;;;8420815;28;20515;-54
2021/03/06 09:00:09;;;;;;;2.15;1.60;;;17.70;30.00;;;;;;8391692;28;20033;-54
2021/03/06 09:04:10;;;;;;;1.50;1.40;;;17.70;30.00;;;;;;8384392;28;20505;-54
2021/03/06 09:08:11;;;;;;;2.40;1.75;;;17.70;30.00;;;;;;8389019;28;20084;-54
2021/03/06 09:12:11;;;;;;;2.35;1.70;;;17.70;30.00;;;;;;8422528;28;20093;-54
2021/03/06 09:16:12;;;;;;;2.23;1.73;;;17.70;30.00;;;;;;8386407;28;20033;-54
2021/03/06 09:20:13;;;;;;;2.30;1.97;;;17.70;30.00;;;;;;8385152;28;20060;-55
2021/03/06 09:24:13;;;;;;;1.70;1.60;;;17.70;29.90;;;;;;8390722;28;20038;-53
2021/03/06 09:28:14;;;;;;;1.60;1.50;;;17.70;30.00;;;;;;8389907;28;20147;-54
2021/03/06 09:32:14;;;;;;;1.80;1.70;;;17.70;30.00;;;;;;8393167;28;20094;-54
2021/03/06 09:36:16;;;;;;;2.63;1.70;;;17.70;29.90;;;;;;8390030;28;20048;-54
2021/03/06 09:40:19;;;;;;;1.58;1.48;;;17.70;29.90;;;;;;8390678;28;20412;-54
2021/03/06 09:44:19;;;;;;;1.70;1.60;;;17.70;29.90;;;;;;8388230;28;20044;-53
2021/03/06 09:48:20;;;;;;;1.83;1.67;;;17.70;29.90;;;;;;8394021;28;20109;-53
2021/03/06 09:52:31;;;;;;;2.27;1.93;;;17.70;29.90;;;;;;8389206;28;20045;-54
2021/03/06 09:56:32;;;;;;;1.70;1.60;;;17.70;29.90;;;;;;8387958;28;20046;-54
2021/03/06 10:00:33;;;;;;;2.37;1.93;;;17.80;29.90;;;;;;8389233;28;20046;-54
2021/03/06 10:04:34;;;;;;;2.20;1.97;;;17.70;29.90;;;;;;8390289;28;20547;-54
2021/03/06 10:08:48;;;;;;;3.08;1.80;;;17.80;29.90;;;;;;8391926;28;20070;-53
2021/03/06 10:12:48;;;;;;;1.95;1.60;;;17.70;29.80;;;;;;8389097;28;20052;-55
2021/03/06 10:16:56;;;;;;;3.10;1.70;;;17.80;29.90;;;;;;8387433;28;20039;-53
2021/03/06 10:20:57;;;;;;;1.50;1.40;;;17.80;29.90;;;;;;8388753;28;20037;-54
2021/03/06 10:25:03;;;;;;;2.43;1.40;;;17.80;29.90;;;;;;8393366;28;20037;-54
2021/03/06 10:29:22;;;;;;;1.85;1.50;;;17.80;29.90;;;;;;8386607;28;20583;-54
2021/03/06 10:33:23;;;;;;;1.83;1.55;;;17.80;29.90;;;;;;8387895;28;20520;-54
2021/03/06 10:37:25;;;;;;;1.50;1.40;;;17.80;29.90;;;;;;8388088;28;20511;-54
2021/03/06 10:41:25;;;;;;;;;;;17.80;29.80;;;;;;8386914;28;20037;-54
2021/03/06 10:45:28;;;;;;;1.85;1.60;;;17.80;29.90;;;;;;8392450;28;20327;-52
2021/03/06 10:49:43;;;;;;;2.03;1.70;;;17.80;29.90;;;;;;8397195;28;20049;-53
2021/03/06 10:53:58;;;;;;;1.75;1.52;;;17.80;29.90;;;;;;8386187;28;20037;-54
2021/03/06 10:57:59;;;;;;;1.60;1.50;;;17.80;29.90;;;;;;8387539;28;20040;-54
2021/03/06 11:02:00;;;;;;;2.00;1.80;;;17.80;29.90;;;;;;8385558;28;22060;-54
2021/03/06 11:06:00;;;;;;;1.90;1.70;;;17.80;29.80;;;;;;8391704;28;20047;-54
2021/03/06 11:10:01;;;;;;;1.90;1.70;;;17.90;30.00;;;;;;8387770;28;20090;-55
2021/03/06 11:14:01;;;;;;;1.73;1.60;;;17.90;30.00;;;;;;8385250;28;20132;-54
2021/03/06 11:18:03;;;;;;;1.70;1.60;;;17.90;30.00;;;;;;8387077;28;20094;-55
2021/03/06 11:22:04;;;;;;;1.95;1.70;;;18.00;29.90;;;;;;8391125;28;20039;-55
2021/03/06 11:26:05;;;;;;;2.50;2.10;;;18.00;29.90;;;;;;8385269;28;20393;-54
2021/03/06 11:30:06;;;;;;;2.60;1.88;;;18.00;29.90;;;;;;8386538;28;20504;-55
2021/03/06 11:34:07;;;;;;;2.63;2.10;;;18.00;29.90;;;;;;8386316;28;20071;-54
2021/03/06 11:38:09;;;;;;;2.17;1.90;;;18.00;29.80;;;;;;8386926;28;20021;-56
2021/03/06 11:42:10;;;;;;;2.40;2.03;;;18.10;29.80;;;;;;8389605;28;20040;-55
2021/03/06 11:46:10;;;;;;;3.83;1.63;;;18.10;29.80;;;;;;8408481;28;20092;-55
2021/03/06 11:50:13;;;;;;;3.13;1.73;;;18.20;29.80;;;;;;8403683;28;20056;-55
2021/03/06 11:54:13;;;;;;;2.15;1.50;;;18.20;29.80;;;;;;8385936;28;20101;-56
2021/03/06 11:58:15;;;;;;;2.13;1.90;;;18.20;29.80;;;;;;8389922;28;20037;-55
2021/03/06 12:02:15;;;;;;;2.00;1.70;;;18.20;29.80;;;;;;8383706;28;20099;-56
2021/03/06 12:06:16;;;;;;;1.70;1.60;;;18.20;29.80;;;;;;8386065;28;20094;-55
2021/03/06 12:10:19;;;;;;;2.67;1.70;;;18.20;29.80;;;;;;8385805;28;20059;-54
2021/03/06 12:14:20;;;;;;;1.85;1.65;;;18.20;29.80;;;;;;8388127;28;20474;-53
2021/03/06 12:18:22;;;;;;;2.20;2.00;;;18.20;29.80;;;;;;8385438;28;20489;-54
2021/03/06 12:22:22;;;;;;;2.85;2.10;;;18.20;29.80;;;;;;8386206;28;20481;-55
2021/03/06 12:26:23;;;;;;;2.00;1.80;;;18.20;29.80;;;;;;8383467;28;20136;-55
2021/03/06 12:30:24;;;;;;;2.83;2.17;;;18.20;29.80;;;;;;8385111;28;20059;-55
2021/03/06 12:34:25;;;;;;;2.03;1.70;;;18.20;29.80;;;;;;8389789;28;20036;-55
2021/03/06 12:38:26;;;;;;;2.13;1.70;;;18.20;29.80;;;;;;8383140;28;20041;-55
2021/03/06 12:42:26;;;;;;;2.23;1.70;;;18.20;29.80;;;;;;8384908;28;20430;-54
2021/03/06 12:46:27;;;;;;;2.00;1.40;;;18.20;29.80;;;;;;8384912;28;20043;-55
2021/03/06 12:50:27;;;;;;;2.27;1.90;;;18.20;29.80;;;;;;8387584;28;20090;-55
2021/03/06 12:54:29;;;;;;;1.80;1.70;;;18.20;29.80;;;;;;8385902;28;20040;-55
2021/03/06 12:58:29;;;;;;;2.30;1.77;;;18.20;29.90;;;;;;8391433;28;20044;-55
2021/03/06 13:02:30;;;;;;;2.83;1.70;;;18.20;29.80;;;;;;8389420;28;20037;-55
2021/03/06 13:06:30;;;;;;;2.60;1.80;;;18.20;29.80;;;;;;8393578;28;20207;-55
2021/03/06 13:10:31;;;;;;;1.77;1.63;;;18.20;29.80;;;;;;8425892;28;20048;-54
2021/03/06 13:14:32;;;;;;;2.57;2.00;;;18.20;29.90;;;;;;8398976;28;20074;-54
2021/03/06 13:18:32;;;;;;;2.30;1.93;;;18.20;29.90;;;;;;8389970;28;20556;-52
2021/03/06 13:22:33;;;;;;;2.73;2.23;;;18.20;29.90;;;;;;8390629;28;20037;-54
2021/03/06 13:26:34;;;;;;;1.67;1.57;;;18.20;29.90;;;;;;8393136;28;20460;-53
2021/03/06 13:30:35;;;;;;;2.70;2.10;;;18.20;29.90;;;;;;8390414;28;20139;-54
2021/03/06 13:34:36;;;;;;;1.67;1.42;;;18.20;29.80;;;;;;8389168;28;20435;-49
2021/03/06 13:38:36;;;;;;;2.10;1.60;;;18.20;29.80;;;;;;8390112;28;20039;-54
2021/03/06 13:42:38;;;;;;;2.37;1.90;;;18.20;29.90;;;;;;8394490;28;20382;-52
2021/03/06 13:46:39;;;;;;;2.08;1.80;;;18.20;29.80;;;;;;8388158;28;20178;-53
2021/03/06 13:50:40;;;;;;;2.70;2.03;;;18.20;29.80;;;;;;8389501;28;20574;-55
2021/03/06 13:54:41;;;;;;;2.03;1.73;;;18.20;29.90;;;;;;8389708;28;20037;-53
2021/03/06 13:58:41;;;;;;;2.88;1.88;;;18.20;29.80;;;;;;8387917;28;20108;-55
2021/03/06 14:02:42;;;;;;;1.87;1.57;;;18.20;29.80;;;;;;8393781;28;20036;-53
2021/03/06 14:06:43;;;;;;;2.67;1.97;;;18.20;29.80;;;;;;8388575;28;20075;-54
2021/03/06 14:10:43;;;;;;;2.17;1.83;;;18.20;29.80;;;;;;8386810;28;20071;-53
2021/03/06 14:14:44;;;;;;;2.13;1.90;;;18.20;29.80;;;;;;8389405;28;20033;-55
2021/03/06 14:18:44;;;;;;;2.07;1.77;;;18.20;29.80;;;;;;8393218;28;20502;-54
2021/03/06 14:22:45;;;;;;;2.63;1.90;;;18.20;29.80;;;;;;8387575;28;20033;-55
2021/03/06 14:26:45;;;;;;;3.00;1.90;;;18.20;29.80;;;;;;8388813;28;20043;-54
2021/03/06 14:30:46;;;;;;;2.80;1.93;;;18.20;29.80;;;;;;8388339;28;20052;-54
2021/03/06 14:34:47;;;;;;;2.37;1.83;;;18.20;29.70;;;;;;8391117;28;20170;-54
2021/03/06 14:38:47;;;;;;;1.83;1.67;;;18.20;29.70;;;;;;8388228;28;20033;-54
2021/03/06 14:42:48;;;;;;;2.07;1.70;;;18.20;29.70;;;;;;8388028;28;20038;-54
2021/03/06 14:46:49;;;;;;;1.88;1.65;;;18.20;29.70;;;;;;8386776;28;20055;-54
2021/03/06 14:50:49;;;;;;;2.20;1.93;;;18.20;29.80;;;;;;8387975;28;20141;-54
2021/03/06 14:54:50;;;;;;;2.57;1.97;;;18.20;29.80;;;;;;8392468;28;20064;-54
2021/03/06 14:58:51;;;;;;;2.30;2.00;;;18.20;29.70;;;;;;8387299;28;20382;-54
2021/03/06 15:02:51;;;;;;;1.70;1.60;;;18.20;30.00;;;;;;8387843;28;20075;-54
2021/03/06 15:06:52;;;;;;;2.20;1.87;;;18.20;29.70;;;;;;8387047;28;20120;-55
2021/03/06 15:10:53;;;;;;;2.10;1.87;;;18.20;29.70;;;;;;8390297;28;20087;-54
2021/03/06 15:14:55;;;;;;;2.05;1.80;;;18.20;29.70;;;;;;8386918;28;20520;-54
2021/03/06 15:18:55;;;;;;;;;;;18.20;29.70;;;;;;8387047;28;20163;-54
2021/03/06 15:22:56;;;;;;;2.10;1.80;;;18.20;29.70;;;;;;8385040;28;20381;-53
2021/03/06 15:26:56;;;;;;;3.03;1.73;;;18.20;29.70;;;;;;8388687;28;20047;-55
2021/03/06 15:30:57;;;;;;;2.83;1.80;;;18.20;29.70;;;;;;8388796;28;20039;-54
2021/03/06 15:34:58;;;;;;;2.13;1.90;;;18.20;29.70;;;;;;8384423;28;20039;-54
2021/03/06 15:38:58;;;;;;;1.80;1.60;;;18.20;29.70;;;;;;8399642;28;20044;-55
2021/03/06 15:42:59;;;;;;;2.50;2.07;;;18.20;29.70;;;;;;8417824;28;20028;-54
2021/03/06 15:46:59;;;;;;;2.17;1.90;;;18.20;29.70;;;;;;8422511;28;20032;-54
2021/03/06 15:51:00;;;;;;;2.87;2.03;;;18.20;29.80;;;;;;8392237;28;20044;-54
2021/03/06 15:55:01;;;;;;;2.40;1.80;;;18.20;29.80;;;;;;8385899;28;20036;-55
2021/03/06 15:59:02;;;;;;;4.20;2.20;;;18.20;29.80;;;;;;8384155;28;20116;-54
2021/03/06 16:03:03;;;;;;;2.75;2.05;;;18.10;29.70;;;;;;8390137;28;20032;-55
2021/03/06 16:07:04;;;;;;;3.13;2.08;;;18.20;29.80;;;;;;8415929;28;20123;-55
2021/03/06 16:11:05;;;;;;;2.45;2.05;;;18.20;29.80;;;;;;8396511;28;20052;-55
2021/03/06 16:15:06;;;;;;;2.67;2.10;;;18.10;29.80;;;;;;8385348;28;20134;-54
2021/03/06 16:19:07;;;;;;;2.75;2.13;;;18.20;29.80;;;;;;8385375;28;20044;-55
2021/03/06 16:23:07;;;;;;;3.23;2.17;;;18.20;29.80;;;;;;8388060;28;20132;-55
2021/03/06 16:27:08;;;;;;;2.17;1.90;;;18.20;29.80;;;;;;8384908;28;20147;-54
2021/03/06 16:31:09;;;;;;;2.57;2.10;;;18.20;29.80;;;;;;8384638;28;20040;-55
2021/03/06 16:35:10;;;;;;;3.37;2.10;;;18.20;29.80;;;;;;8383437;28;20045;-55
2021/03/06 16:39:11;;;;;;;4.38;2.83;;;18.20;29.80;;;;;;8389865;28;20131;-55
2021/03/06 16:43:11;;;;;;;3.43;2.17;;;18.10;29.70;;;;;;8385218;28;20043;-55
2021/03/06 16:47:13;;;;;;;3.77;2.50;;;18.10;29.70;;;;;;8383304;28;20127;-55
2021/03/06 16:51:13;;;;;;;;;;;18.10;29.80;;;;;;8385144;28;20025;-56
2021/03/06 16:55:14;;;;;;;3.85;2.60;;;18.10;29.70;;;;;;8389589;28;20277;-56
2021/03/06 16:59:15;;;;;;;3.57;2.47;;;18.10;29.80;;;;;;8383021;28;20704;-54
2021/03/06 17:03:15;;;;;;;3.77;2.87;;;18.10;29.80;;;;;;8385140;28;20075;-55
2021/03/06 17:07:16;;;;;;;3.50;2.57;;;18.10;29.80;;;;;;8385038;28;20131;-55
2021/03/06 17:11:17;;;;;;;4.03;2.20;;;18.10;29.70;;;;;;8383043;28;20127;-54
2021/03/06 17:15:17;;;;;;;4.70;2.90;;;18.00;29.80;;;;;;8389097;28;20044;-54
2021/03/06 17:19:19;;;;;;;5.07;2.83;;;18.10;29.80;;;;;;8384287;28;20067;-54
2021/03/06 17:23:19;;;;;;;4.30;2.83;;;18.00;29.80;;;;;;8382561;28;20044;-54
2021/03/06 17:27:20;;;;;;;4.00;3.00;;;18.00;30.00;;;;;;8384182;28;20064;-55
2021/03/06 17:31:20;;;;;;;2.77;2.37;;;18.00;29.80;;;;;;8388646;28;20043;-55
2021/03/06 17:35:21;;;;;;;4.17;3.00;;;18.00;29.80;;;;;;8382843;28;20036;-54
2021/03/06 17:39:21;;;;;;;4.07;2.93;;;18.00;29.80;;;;;;8384331;28;20072;-55
2021/03/06 17:43:22;;;;;;;3.30;2.80;;;18.00;29.80;;;;;;8389543;28;20036;-55
2021/03/06 17:47:23;;;;;;;5.10;3.10;;;18.00;29.80;;;;;;8389912;28;20052;-56
2021/03/06 17:51:23;;;;;;;3.27;2.67;;;17.90;29.80;;;;;;8392422;28;20467;-55
2021/03/06 17:55:24;;;;;;;4.67;3.07;;;17.90;29.80;;;;;;8412494;28;20424;-55
2021/03/06 17:59:25;;;;;;;4.07;2.80;;;17.90;29.80;;;;;;8407852;28;20063;-56
2021/03/06 18:03:25;;;;;;;3.63;2.33;;;17.90;29.80;;;;;;8389352;28;20151;-55
2021/03/06 18:07:26;;;;;;;3.03;2.47;;;18.00;29.80;;;;;;8393496;28;20055;-56
2021/03/06 18:11:26;;;;;;;4.23;3.13;;;17.90;29.90;;;;;;8387888;28;20410;-56
2021/03/06 18:15:27;;;;;;;3.07;2.60;;;17.90;29.80;;;;;;8389087;28;20040;-56
2021/03/06 18:19:27;;;;;;;4.10;2.83;;;17.90;29.80;;;;;;8388853;28;20032;-56
2021/03/06 18:23:28;;;;;;;5.13;2.90;;;17.90;29.80;;;;;;8391681;28;20086;-56
2021/03/06 18:27:31;;;;;;;3.53;2.70;;;17.90;29.80;;;;;;8389694;28;20090;-56
2021/03/06 18:31:32;;;;;;;4.22;2.58;;;17.90;29.80;;;;;;8388898;28;20035;-56
2021/03/06 18:35:32;;;;;;;4.37;2.93;;;17.90;30.20;;;;;;8386685;28;20064;-53
2021/03/06 18:39:33;;;;;;;4.40;3.30;;;17.90;29.90;;;;;;8388014;28;20563;-53
2021/03/06 18:43:34;;;;;;;4.78;3.58;;;17.80;29.90;;;;;;8392652;28;20405;-53
2021/03/06 18:47:35;;;;;;;4.38;3.25;;;17.80;30.20;;;;;;8410669;28;20131;-54
2021/03/06 18:51:36;;;;;;;4.70;2.95;;;17.80;29.90;;;;;;8406622;28;20033;-54
2021/03/06 18:55:36;;;;;;;5.07;3.10;;;17.80;29.90;;;;;;8390165;28;20120;-53
2021/03/06 18:59:37;;;;;;;4.47;2.90;;;17.80;29.90;;;;;;8425586;28;20089;-54
2021/03/06 19:03:38;;;;;;;4.47;3.00;;;17.80;29.90;;;;;;8391813;28;20078;-55
2021/03/06 19:07:40;;;;;;;5.20;3.03;;;17.80;29.90;;;;;;8386025;28;20060;-54
2021/03/06 19:11:41;;;;;;;4.38;3.10;;;17.80;29.90;;;;;;8387469;28;20064;-53
2021/03/06 19:15:41;;;;;;;4.50;3.23;;;17.80;29.90;;;;;;8391510;28;20048;-54
2021/03/06 19:19:42;;;;;;;4.60;3.07;;;17.80;29.90;;;;;;8385286;28;20299;-55
2021/03/06 19:23:42;;;;;;;4.23;2.80;;;17.80;29.90;;;;;;8386813;28;20453;-54
2021/03/06 19:27:43;;;;;;;4.20;2.90;;;17.70;29.90;;;;;;8386710;28;20044;-55
2021/03/06 19:31:44;;;;;;;6.07;2.97;;;17.70;29.80;;;;;;8384785;28;20037;-55
2021/03/06 19:35:44;;;;;;;5.50;3.30;;;17.70;29.90;;;;;;8390997;28;20039;-53
2021/03/06 19:39:45;;;;;;;5.80;3.77;;;17.70;29.90;;;;;;8386320;28;20040;-54
2021/03/06 19:43:45;;;;;;;5.03;3.27;;;17.70;29.90;;;;;;8384581;28;20120;-53
2021/03/06 19:47:46;;;;;;;6.03;3.57;;;17.70;29.90;;;;;;8386269;28;20436;-55
2021/03/06 19:51:47;;;;;;;5.87;3.23;;;17.70;29.90;;;;;;8390508;28;20577;-54
2021/03/06 19:55:49;;;;;;;5.97;4.27;;;17.70;29.90;;;;;;8384449;28;20497;-55
2021/03/06 19:59:50;;;;;;;4.88;3.53;;;17.70;29.90;;;;;;8385717;28;20577;-55
2021/03/06 20:03:50;;;;;;;5.73;3.17;;;17.70;29.90;;;;;;8385053;28;20047;-54
2021/03/06 20:07:51;;;;;;;5.57;3.80;;;17.60;29.90;;;;;;8385036;28;20052;-54
2021/03/06 20:11:51;;;;;;;5.57;3.07;;;17.70;29.90;;;;;;8388905;28;20047;-54
2021/03/06 20:15:52;;;;;;;6.07;3.73;;;17.60;29.90;;;;;;8386106;28;20490;-55
2021/03/06 20:19:53;;;;;;;4.85;3.40;;;17.60;29.90;;;;;;8383989;28;20032;-53
2021/03/06 20:23:53;;;;;;;5.70;3.27;;;17.60;29.90;;;;;;8385723;28;20032;-55
2021/03/06 20:27:54;;;;;;;4.43;3.20;;;17.60;29.90;;;;;;8389982;28;20159;-54
2021/03/06 20:31:56;;;;;;;5.27;3.80;;;17.60;29.90;;;;;;8384042;28;20044;-53
2021/03/06 20:35:57;;;;;;;4.70;3.63;;;17.60;29.90;;;;;;8385287;28;20036;-54
2021/03/06 20:39:58;;;;;;;5.23;3.53;;;17.60;29.90;;;;;;8384936;28;20047;-54
2021/03/06 20:43:58;;;;;;;5.67;3.57;;;17.60;30.30;;;;;;8387567;28;20482;-54
2021/03/06 20:47:59;;;;;;;4.07;3.00;;;17.60;29.90;;;;;;8385031;28;20064;-54
2021/03/06 20:51:59;;;;;;;5.97;4.00;;;17.60;29.90;;;;;;8405615;28;20040;-54
2021/03/06 20:56:00;;;;;;;4.87;3.47;;;17.60;29.90;;;;;;8404765;28;20043;-54
2021/03/06 21:00:00;;;;;;;4.97;3.90;;;17.60;29.90;;;;;;8384706;28;20049;-54
2021/03/06 21:04:01;;;;;;;6.53;4.10;;;17.60;29.90;;;;;;8389309;28;20485;-54